Latest Weather Observations for Wangaratta

IDV60801

Issued at 2:32 pm EST Tuesday 25 April 2017 (issued every 30 minutes, with the page automatically refreshed every 10 minutes)

About weather observations | Map of weather stations | Latest weather observations for VIC | Other Formats
Station Details ID: 082138 Name: WANGARATTA AERO Lat: -36.42 Lon: 146.31 Height: 152.6 m
Data from the previous 72 hours. | See also: Recent months at Wangaratta
Date/Time
EST
Temp
°C
App
Temp
°C
Dew
Point
°C
Rel
Hum
%
Delta-T
°C
Wind Press
QNH
hPa
Press
MSL
hPa
Rain since
9am
mm
Dir  Spd
km/h
Gust
km/h
Spd
kts
Gust
kts
25/02:30pm 21.0 18.4 14.9 68 3.6 WNW 22 35 12 19 1006.3 1006.1 5.4
25/02:00pm 20.6 17.6 14.7 69 3.5 WNW 24 33 13 18 1006.3 1006.1 5.4
25/01:30pm 20.1 17.8 14.7 71 3.2 WNW 20 30 11 16 1006.7 1006.5 5.4
25/01:00pm 18.8 16.9 15.3 80 2.1 WNW 19 24 10 13 1007.2 1007.0 5.4
25/12:30pm 18.6 18.2 15.3 81 1.9 WNW 11 17 6 9 1007.5 1007.3 5.4
25/12:00pm 18.0 17.8 15.6 86 1.4 W 11 17 6 9 1008.0 1007.8 5.4
25/11:42am 17.7 17.1 15.7 88 1.2 WNW 13 17 7 9 1008.2 1008.0 5.4
25/11:30am 17.8 17.4 16.1 90 1.0 WNW 13 17 7 9 1008.4 1008.2 5.4
25/11:00am 17.0 17.7 17.0 100 0.0 NW 9 13 5 7 1008.7 1008.6 5.4
25/10:54am 17.1 17.8 17.1 100 0.0 NNW 9 13 5 7 1008.8 1008.7 5.4
25/10:30am 16.7 16.9 16.7 100 0.0 N 11 13 6 7 1008.7 1008.6 5.4
25/10:13am 16.5 17.0 16.5 100 0.0 N 9 11 5 6 1008.9 1008.8 5.2
25/10:00am 16.4 16.8 16.4 100 0.0 NNW 9 13 5 7 1009.1 1009.0 5.0
25/09:46am 16.3 16.7 16.3 100 0.0 W 9 11 5 6 1009.2 1009.1 4.4
25/09:30am 16.4 16.8 16.4 100 0.0 N 9 13 5 7 1009.2 1009.1 3.4
25/09:00am 16.3 17.7 16.3 100 0.0 N 4 7 2 4 1009.4 1009.3 15.6
25/08:59am 16.3 17.7 16.3 100 0.0 NNW 4 7 2 4 1009.4 1009.3 15.6
25/08:30am 16.2 17.1 16.2 100 0.0 N 6 9 3 5 1009.6 1009.5 14.0
25/08:00am 16.2 16.6 16.2 100 0.0 NNE 9 11 5 6 1009.5 1009.4 12.6
25/07:49am 16.1 16.0 16.1 100 0.0 N 11 13 6 7 1009.6 1009.5 12.2
25/07:46am 16.1 16.0 16.1 100 0.0 N 11 13 6 7 1009.6 1009.5 12.0
25/07:39am 16.1 16.0 16.1 100 0.0 N 11 13 6 7 1009.7 1009.6 11.6
25/07:30am 16.0 15.5 16.0 100 0.0 N 13 19 7 10 1009.7 1009.6 11.2
25/07:05am 16.0 15.5 16.0 100 0.0 N 13 17 7 9 1009.6 1009.5 8.8
25/07:00am 16.1 15.7 16.1 100 0.0 N 13 17 7 9 1009.6 1009.5 8.4
25/06:30am 16.0 15.9 16.0 100 0.0 N 11 15 6 8 1009.7 1009.6 7.6
25/06:00am 16.0 15.8 15.8 99 0.1 N 11 15 6 8 1009.9 1009.8 7.2
25/05:30am 16.2 15.6 15.6 96 0.4 N 13 17 7 9 1009.9 1009.8 6.6
25/05:09am 16.3 14.8 15.3 94 0.6 N 17 20 9 11 1010.2 1010.1 6.0
25/05:00am 16.3 15.9 15.2 93 0.6 N 11 19 6 10 1010.1 1010.0 5.2
25/04:30am 16.0 15.7 15.5 97 0.3 NW 11 19 6 10 1010.1 1010.0 4.2
25/04:19am 15.7 15.8 15.4 98 0.2 WNW 9 17 5 9 1010.1 1010.0 4.0
25/04:00am 15.8 17.2 15.5 98 0.2 NNW 2 7 1 4 1009.9 1009.8 3.8
25/03:30am 15.7 17.0 15.2 97 0.3 N 2 7 1 4 1010.2 1010.1 3.2
25/03:00am 15.9 15.9 15.3 96 0.4 N 9 13 5 7 1010.6 1010.5 3.2
25/02:30am 16.1 15.4 15.3 95 0.5 NNE 13 17 7 9 1011.0 1010.9 3.2
25/02:00am 16.0 15.7 15.4 96 0.4 N 11 15 6 8 1011.9 1011.7 3.0
25/01:51am 16.0 15.6 15.2 95 0.5 N 11 17 6 9 1012.0 1011.8 2.4
25/01:36am 16.0 15.8 14.7 92 0.8 NNW 9 13 5 7 1012.3 1012.1 1.8
25/01:30am 16.1 15.9 14.6 91 0.9 NNW 9 13 5 7 1012.3 1012.1 1.4
25/01:26am 16.2 16.0 14.7 91 0.9 N 9 11 5 6 1012.3 1012.1 1.2
25/01:11am 16.3 15.6 14.3 88 1.1 N 11 15 6 8 1012.3 1012.1 0.8
25/01:00am 16.2 15.8 14.2 88 1.1 N 9 19 5 10 1012.6 1012.4 0.0
25/12:30am 14.7 15.9 13.9 95 0.5 CALM 0 0 0 0 1012.8 1012.6 0.0
25/12:00am 14.3 15.3 13.3 94 0.6 CALM 0 0 0 0 1013.2 1013.0 0.0
 
Date/Time
EST
Temp
°C
App
Temp
°C
Dew
Point
°C
Rel
Hum
%
Delta-T
°C
Wind Press
QNH
hPa
Press
MSL
hPa
Rain since
9am
mm
Dir  Spd
km/h
Gust
km/h
Spd
kts
Gust
kts
24/11:30pm 14.6 15.7 13.5 93 0.6 CALM 0 0 0 0 1013.6 1013.4 0.0
24/11:00pm 14.8 16.0 13.8 94 0.6 CALM 0 0 0 0 1014.1 1014.0 0.0
24/10:30pm 14.3 15.1 12.7 90 0.9 CALM 0 0 0 0 1014.5 1014.4 0.0
24/10:00pm 15.4 16.6 13.9 91 0.9 CALM 0 0 0 0 1014.9 1014.8 0.0
24/09:30pm 15.5 15.4 13.9 90 0.9 SW 7 9 4 5 1015.0 1014.9 0.0
24/09:00pm 16.2 16.8 14.2 88 1.1 SSW 4 7 2 4 1015.0 1014.9 0.0
24/08:30pm 16.6 18.1 14.6 88 1.2 CALM 0 6 0 3 1015.3 1015.2 0.0
24/08:00pm 16.1 16.0 13.9 87 1.3 SW 7 9 4 5 1015.5 1015.4 0.0
24/07:30pm 17.1 17.4 14.6 85 1.4 SSW 6 7 3 4 1015.5 1015.4 0.0
24/07:00pm 17.8 18.5 13.5 76 2.4 E 2 7 1 4 1015.6 1015.5 0.0
24/06:30pm 19.2 19.0 13.6 70 3.2 ENE 7 9 4 5 1015.5 1015.4 0.0
24/06:00pm 19.8 19.7 14.0 69 3.4 ENE 7 9 4 5 1015.6 1015.5 0.0
24/05:30pm 20.9 20.7 13.6 63 4.2 NE 7 11 4 6 1015.7 1015.6 0.0
24/05:00pm 21.5 21.5 14.2 63 4.3 ENE 7 9 4 5 1015.6 1015.5 0.0
24/04:30pm 22.2 21.5 13.3 57 5.2 NE 9 11 5 6 1015.6 1015.5 0.0
24/04:00pm 22.6 21.9 13.1 55 5.5 NNE 9 13 5 7 1016.0 1015.9 0.0
24/03:30pm 23.1 22.2 12.7 52 6.0 NE 9 15 5 8 1016.3 1016.2 0.0
24/03:00pm 23.1 21.3 12.1 50 6.3 NNE 13 19 7 10 1016.6 1016.5 0.0
24/02:30pm 23.1 22.6 12.7 52 6.0 N 7 15 4 8 1016.8 1016.7 0.0
24/02:00pm 22.7 21.0 12.3 52 5.9 NNE 13 17 7 9 1017.0 1016.9 0.0
24/01:30pm 22.4 21.1 12.4 53 5.7 N 11 19 6 10 1017.5 1017.4 0.0
24/01:00pm 22.9 22.4 13.7 56 5.4 NNE 9 19 5 10 1017.9 1017.8 0.0
24/12:30pm 22.0 20.3 12.5 54 5.4 NNE 13 17 7 9 1018.8 1018.6 0.0
24/12:00pm 21.3 20.7 13.5 61 4.5 NNE 9 17 5 9 1019.5 1019.3 0.0
24/11:30am 20.4 19.8 13.4 64 4.0 NNE 9 13 5 7 1020.1 1020.0 0.0
24/11:00am 19.9 19.9 13.6 67 3.6 NNE 6 9 3 5 1020.7 1020.6 0.0
24/10:30am 18.6 19.8 13.9 74 2.7 CALM 0 0 0 0 1021.2 1021.1 0.0
24/10:00am 16.6 16.8 12.9 79 2.1 SE 4 7 2 4 1021.6 1021.5 0.0
24/09:30am 15.4 15.2 12.9 85 1.4 SE 6 9 3 5 1021.7 1021.6 0.0
24/09:00am 14.0 13.7 12.6 91 0.8 SE 6 9 3 5 1022.0 1021.9 0.2
24/08:30am 12.8 13.7 12.8 100 0.0 CALM 0 0 0 0 1022.0 1021.9 0.2
24/08:00am 11.9 12.5 11.9 100 0.0 CALM 0 0 0 0 1022.0 1021.9 0.2
24/07:30am 10.7 10.9 10.7 100 0.0 CALM 0 4 0 2 1021.9 1021.8 0.2
24/07:00am 9.3 8.4 9.3 100 0.0 SW 4 6 2 3 1021.7 1021.6 0.2
24/06:30am 9.9 8.8 9.9 100 0.0 S 6 7 3 4 1021.6 1021.5 0.2
24/06:00am 10.2 10.3 10.2 100 0.0 CALM 0 0 0 0 1021.5 1021.4 0.0
24/05:30am 10.1 10.2 10.1 100 0.0 CALM 0 0 0 0 1021.6 1021.5 0.0
24/05:27am 10.1 10.2 10.1 100 0.0 CALM 0 0 0 0 1021.5 1021.4 0.0
24/05:06am 10.4 9.4 10.4 100 0.0 S 6 7 3 4 1021.3 1021.2 0.0
24/05:00am 10.7 9.8 10.7 100 0.0 SSE 6 7 3 4 1021.3 1021.2 0.0
24/04:30am 10.4 9.4 10.2 99 0.1 S 6 7 3 4 1021.2 1021.1 0.0
24/04:11am 10.0 8.3 9.9 99 0.1 SW 9 9 5 5 1021.1 1021.0 0.0
24/04:00am 10.0 9.3 9.9 99 0.1 SSW 4 9 2 5 1021.1 1021.0 0.0
24/03:52am 10.1 10.2 10.0 99 0.1 CALM 0 0 0 0 1021.1 1021.0 0.0
24/03:50am 10.2 10.3 10.1 99 0.1 CALM 0 0 0 0 1021.0 1020.9 0.0
24/03:30am 10.4 10.5 10.2 99 0.1 CALM 0 0 0 0 1021.1 1021.0 0.0
24/03:00am 10.2 10.3 10.1 99 0.1 CALM 0 0 0 0 1021.1 1021.0 0.0
24/02:46am 10.8 11.0 10.6 99 0.1 CALM 0 0 0 0 1021.3 1021.2 0.0
24/02:30am 10.7 10.9 10.5 99 0.1 CALM 0 0 0 0 1021.4 1021.3 0.0
24/02:17am 10.2 10.3 10.1 99 0.1 CALM 0 0 0 0 1021.5 1021.4 0.0
24/02:14am 10.2 10.3 10.1 99 0.1 CALM 0 0 0 0 1021.5 1021.4 0.0
24/02:00am 10.9 11.1 10.7 99 0.1 CALM 0 0 0 0 1021.5 1021.4 0.0
24/01:38am 10.7 10.9 10.5 99 0.1 CALM 0 0 0 0 1021.7 1021.6 0.0
24/01:33am 11.0 11.3 10.8 99 0.1 CALM 0 0 0 0 1021.7 1021.6 0.0
24/01:30am 11.3 11.7 11.1 99 0.1 CALM 0 0 0 0 1021.7 1021.6 0.0
24/01:00am 10.9 9.8 10.7 99 0.1 WNW 7 9 4 5 1021.6 1021.5 0.0
24/12:42am 11.9 12.4 11.7 99 0.1 CALM 0 4 0 2 1021.8 1021.7 0.0
24/12:30am 12.2 12.1 12.0 99 0.1 S 4 7 2 4 1021.8 1021.7 0.0
24/12:17am 12.0 10.9 11.8 99 0.1 SSW 9 11 5 6 1021.9 1021.8 0.0
24/12:00am 11.7 11.8 11.5 99 0.1 SW 2 11 1 6 1022.0 1021.9 0.0
 
Date/Time
EST
Temp
°C
App
Temp
°C
Dew
Point
°C
Rel
Hum
%
Delta-T
°C
Wind Press
QNH
hPa
Press
MSL
hPa
Rain since
9am
mm
Dir  Spd
km/h
Gust
km/h
Spd
kts
Gust
kts
23/11:54pm 12.0 12.6 11.8 99 0.1 CALM 0 0 0 0 1022.0 1021.9 0.0
23/11:30pm 12.2 11.7 12.0 99 0.1 SSE 6 7 3 4 1022.2 1022.1 0.0
23/11:00pm 12.6 13.4 12.4 99 0.1 CALM 0 7 0 4 1022.5 1022.4 0.0
23/10:30pm 12.6 13.3 12.1 97 0.3 CALM 0 0 0 0 1022.7 1022.6 0.0
23/10:00pm 12.6 13.2 11.8 95 0.4 CALM 0 0 0 0 1022.9 1022.8 0.0
23/09:30pm 13.5 13.9 12.6 94 0.5 ENE 2 7 1 4 1022.9 1022.8 0.0
23/09:00pm 13.8 13.0 13.0 95 0.4 SSW 9 11 5 6 1022.7 1022.6 0.0
23/08:30pm 14.4 14.3 13.4 94 0.6 S 6 7 3 4 1022.7 1022.6 0.0
23/08:00pm 14.5 15.4 12.9 90 0.9 CALM 0 0 0 0 1022.6 1022.5 0.0
23/07:30pm 15.7 16.8 13.4 86 1.3 CALM 0 0 0 0 1022.5 1022.4 0.0
23/07:00pm 15.8 15.6 12.9 83 1.6 W 6 9 3 5 1022.3 1022.2 0.0
23/06:45pm 16.5 17.4 13.0 80 2.0 CALM 0 0 0 0 1022.2 1022.1 0.0
23/06:32pm 16.5 17.3 12.7 78 2.1 CALM 0 0 0 0 1022.0 1021.9 0.0
23/06:30pm 16.5 17.3 12.5 77 2.2 CALM 0 0 0 0 1022.0 1021.9 0.0
23/06:00pm 18.6 19.5 13.0 70 3.2 CALM 0 0 0 0 1021.8 1021.7 0.0
23/05:30pm 20.2 21.0 12.7 62 4.3 CALM 0 0 0 0 1021.7 1021.6 0.0
23/05:00pm 22.0 22.7 12.3 54 5.5 CALM 0 0 0 0 1021.5 1021.4 0.0
23/04:30pm 22.6 22.2 12.3 52 5.9 SSE 6 9 3 5 1021.4 1021.3 0.0
23/04:00pm 22.4 21.6 11.8 51 6.0 S 7 11 4 6 1021.4 1021.3 0.0
23/03:30pm 23.1 23.6 12.7 52 6.0 SW 2 7 1 4 1021.5 1021.4 0.0
23/03:00pm 22.6 22.0 11.7 50 6.1 SSW 6 11 3 6 1021.5 1021.4 0.0
23/02:30pm 22.3 21.3 12.3 53 5.7 SSW 9 13 5 7 1021.7 1021.6 0.0
23/02:00pm 22.9 22.8 13.4 55 5.5 WNW 6 9 3 5 1021.8 1021.7 0.0
23/01:30pm 22.1 22.6 12.9 56 5.3 SE 2 7 1 4 1022.2 1022.1 0.0
23/01:00pm 21.8 21.9 13.9 61 4.6 S 6 11 3 6 1022.5 1022.4 0.0
23/12:30pm 21.1 20.6 12.8 59 4.7 SE 7 15 4 8 1023.0 1022.9 0.0
23/12:00pm 21.2 21.2 13.6 62 4.4 SSE 6 9 3 5 1023.5 1023.4 0.0
23/11:30am 19.8 19.6 13.5 67 3.6 ESE 7 13 4 7 1023.9 1023.8 0.0
23/11:00am 18.7 19.7 13.3 71 3.1 CALM 0 9 0 5 1024.4 1024.3 0.0
23/10:30am 18.3 19.5 14.8 80 2.0 SE 2 7 1 4 1024.6 1024.5 0.0
23/10:00am 16.4 16.4 13.7 84 1.5 SE 6 9 3 5 1024.8 1024.7 0.0
23/09:30am 15.1 15.8 13.5 90 0.9 S 2 7 1 4 1025.0 1024.9 0.0
23/09:00am 14.6 14.6 13.5 93 0.6 SSE 6 9 3 5 1025.1 1025.0 0.2
23/08:30am 13.9 13.8 13.9 100 0.0 SSW 7 9 4 5 1025.0 1024.9 0.2
23/08:00am 12.8 12.5 12.8 100 0.0 SSW 6 9 3 5 1024.7 1024.6 0.2
23/07:30am 11.4 11.5 11.4 100 0.0 SSE 2 7 1 4 1024.5 1024.4 0.2
23/07:12am 11.0 10.6 11.0 100 0.0 SE 4 9 2 5 1024.4 1024.3 0.2
23/07:00am 10.9 10.8 10.9 100 0.0 S 2 7 1 4 1024.3 1024.2 0.2
23/06:30am 10.8 11.1 10.8 100 0.0 CALM 0 0 0 0 1024.0 1023.9 0.2
23/06:04am 11.1 11.5 11.1 100 0.0 CALM 0 0 0 0 1023.9 1023.8 0.2
23/06:02am 11.1 11.5 11.1 100 0.0 CALM 0 0 0 0 1023.9 1023.8 0.2
23/06:00am 11.3 11.7 11.3 100 0.0 CALM 0 0 0 0 1023.9 1023.8 0.2
23/05:30am 11.0 11.3 11.0 100 0.0 CALM 0 0 0 0 1023.7 1023.6 0.2
23/05:16am 11.5 12.0 11.5 100 0.0 CALM 0 0 0 0 1023.6 1023.5 0.2
23/05:00am 11.5 11.2 11.5 100 0.0 SSW 4 9 2 5 1023.5 1023.4 0.2
23/04:30am 11.9 11.2 11.9 100 0.0 W 7 11 4 6 1023.4 1023.3 0.2
23/04:23am 12.0 12.2 12.0 100 0.0 W 2 7 1 4 1023.3 1023.2 0.2
23/04:00am 12.0 12.6 12.0 100 0.0 CALM 0 0 0 0 1023.3 1023.2 0.2
23/03:58am 12.1 12.8 12.1 100 0.0 CALM 0 0 0 0 1023.3 1023.2 0.2
23/03:33am 12.1 12.8 12.1 100 0.0 CALM 0 0 0 0 1023.4 1023.3 0.2
23/03:30am 12.2 12.9 12.2 100 0.0 CALM 0 0 0 0 1023.4 1023.3 0.2
23/03:00am 12.2 12.9 12.2 100 0.0 CALM 0 0 0 0 1023.4 1023.3 0.2
23/02:57am 12.3 13.0 12.3 100 0.0 CALM 0 0 0 0 1023.4 1023.3 0.2
23/02:37am 12.6 13.4 12.6 100 0.0 CALM 0 0 0 0 1023.6 1023.5 0.2
23/02:30am 12.3 13.0 12.3 100 0.0 CALM 0 0 0 0 1023.7 1023.6 0.2
23/02:00am 12.8 13.7 12.8 100 0.0 CALM 0 0 0 0 1023.8 1023.7 0.2
23/01:50am 12.9 13.8 12.9 100 0.0 CALM 0 0 0 0 1023.9 1023.8 0.2
23/01:30am 13.1 14.1 13.1 100 0.0 CALM 0 0 0 0 1023.9 1023.8 0.2
23/01:00am 12.1 12.8 12.1 100 0.0 CALM 0 0 0 0 1024.0 1023.9 0.2
23/12:56am 12.0 12.6 12.0 100 0.0 CALM 0 0 0 0 1024.0 1023.9 0.2
23/12:38am 11.5 12.0 11.5 100 0.0 CALM 0 0 0 0 1024.1 1024.0 0.2
23/12:30am 11.5 12.0 11.5 100 0.0 CALM 0 0 0 0 1024.1 1024.0 0.2
23/12:00am 11.7 11.0 11.5 99 0.1 S 6 7 3 4 1024.2 1024.1 0.2
 
Date/Time
EST
Temp
°C
App
Temp
°C
Dew
Point
°C
Rel
Hum
%
Delta-T
°C
Wind Press
QNH
hPa
Press
MSL
hPa
Rain since
9am
mm
Dir  Spd
km/h
Gust
km/h
Spd
kts
Gust
kts
22/11:30pm 12.4 12.4 12.4 100 0.0 SSE 4 6 2 3 1024.2 1024.1 0.2
22/11:18pm 12.6 12.2 12.4 99 0.1 SSE 6 7 3 4 1024.3 1024.2 0.2
22/11:00pm 12.5 12.0 12.5 100 0.0 SE 7 7 4 4 1024.2 1024.1 0.2
22/10:30pm 12.8 12.3 12.6 99 0.1 SW 7 9 4 5 1024.4 1024.3 0.2
22/10:00pm 12.5 13.2 12.3 99 0.1 CALM 0 0 0 0 1024.4 1024.3 0.2
22/09:39pm 13.4 14.4 13.2 99 0.1 CALM 0 0 0 0 1024.4 1024.3 0.2
22/09:30pm 13.2 14.1 12.9 98 0.2 CALM 0 0 0 0 1024.5 1024.4 0.2
22/09:00pm 14.0 14.0 13.7 98 0.2 ENE 6 7 3 4 1024.3 1024.2 0.2
22/08:30pm 14.1 14.0 13.8 98 0.2 SW 7 9 4 5 1024.2 1024.1 0.2
22/08:00pm 14.6 14.6 14.1 97 0.3 SW 7 9 4 5 1023.9 1023.8 0.2
22/07:30pm 15.1 15.3 14.3 95 0.5 SSW 6 7 3 4 1023.6 1023.5 0.2
22/07:00pm 15.2 16.4 13.9 92 0.7 CALM 0 0 0 0 1023.5 1023.4 0.2
22/06:30pm 16.7 16.9 14.3 86 1.4 ESE 6 7 3 4 1023.4 1023.3 0.2
22/06:00pm 17.5 17.2 14.4 82 1.8 SE 9 11 5 6 1023.2 1023.1 0.2
22/05:30pm 18.1 18.3 14.6 80 2.0 ESE 7 11 4 6 1023.1 1023.0 0.2
22/05:00pm 18.8 18.6 14.7 77 2.4 SE 9 13 5 7 1023.1 1023.0 0.2
22/04:30pm 19.2 18.6 14.7 75 2.6 SE 11 15 6 8 1023.0 1022.9 0.2
22/04:00pm 18.9 18.8 15.0 78 2.3 SE 9 13 5 7 1023.0 1022.9 0.2
22/03:30pm 19.1 18.6 14.8 76 2.5 ESE 11 13 6 7 1023.0 1022.9 0.2
22/03:00pm 19.2 19.0 14.7 75 2.6 ESE 9 11 5 6 1023.1 1023.0 0.2

Other Formats:

Comma delimited format used in spreadsheet applications
http://www.bom.gov.au/fwo/IDV60801/IDV60801.94889.axf

JavaScript Object Notation format (JSON) in row-major order
http://www.bom.gov.au/fwo/IDV60801/IDV60801.94889.json